Flight Track Log - Related Links

Times and Time Zones

All times are in EDT time to prevent confusion due to time zone crossing. See the SWA1969 flight status page for this flight to view local times or setup timezone preferences in your user account.


Time Position Orientation Groundspeed Altitude Reporting Facility
EDT Latitude Longitude Course Direction KTS MPH feet Rate Location/Type
Thu 11:10:28 AM 39.3167 -94.7167 47° Northeast 135 155 2,400  Level Kansas City TRACON
Thu 11:11:04 AM 39.3500 -94.7000 21° North 170 196 3,200 1,875 Climbing Kansas City TRACON
Thu 11:12:04 AM 39.4000 -94.6500 38° Northeast 222 255 5,400 2,200 Climbing Kansas City TRACON
Thu 11:13:04 AM 39.4500 -94.6000 38° Northeast 284 327 7,600 2,318 Climbing Kansas City TRACON
Thu 11:14:16 AM 39.5219 -94.5261 38° Northeast 320 368 10,500 2,552 Climbing Kansas City Center
Thu 11:15:18 AM 39.5908 -94.4150 51° Northeast 359 413 13,300 1,707 Climbing Kansas City Center
Thu 11:16:00 AM 39.6894 -94.2182 47° Northeast  Level FlightAware Approximate
Thu 11:16:19 AM 39.6539 -94.3133 51° Northeast 375 432 14,000  Level Kansas City Center
Thu 11:17:21 AM 39.7269 -94.1950 51° Northeast 375 432 14,600 1,113 Climbing Kansas City Center
Thu 11:18:23 AM 39.8019 -94.1053 43° Northeast 387 445 16,300 1,548 Climbing Kansas City Center
Thu 11:19:25 AM 39.8881 -94.0028 42° Northeast 412 474 17,800 1,645 Climbing Kansas City Center
Thu 11:20:27 AM 39.9733 -93.9042 42° Northeast 414 476 19,700 1,984 Climbing Kansas City Center
Thu 11:21:29 AM 40.0636 -93.8017 41° Northeast 425 489 21,900 2,177 Climbing Kansas City Center
Thu 11:22:31 AM 40.1069 -93.6267 72° East 432 497 24,200 1,935 Climbing Kansas City Center
Thu 11:23:33 AM 40.1342 -93.4700 77° East 441 507 25,900 1,355 Climbing Kansas City Center
Thu 11:24:35 AM 40.1608 -93.3097 78° East 452 520 27,000 532 Climbing Kansas City Center
Thu 11:25:37 AM 40.1878 -93.1481 78° East 457 526 27,000  Level Kansas City Center
Thu 11:26:39 AM 40.2175 -92.9683 78° East 453 521 27,000  Level Kansas City Center
Thu 11:27:41 AM 40.2411 -92.8167 78° East 446 513 27,000  Level Kansas City Center
Thu 11:28:42 AM 40.2678 -92.6469 78° East 431 496 27,000  Level Kansas City Center
Thu 11:29:44 AM 40.2906 -92.4983 79° East 431 496 27,000  Level Kansas City Center
Thu 11:30:46 AM 40.3189 -92.3231 78° East 439 505 27,000  Level Kansas City Center
Thu 11:31:48 AM 40.3422 -92.1675 79° East 440 506 27,000  Level Kansas City Center
Thu 11:32:50 AM 40.3653 -92.0131 79° East 437 503 27,000  Level Kansas City Center
Thu 11:33:52 AM 40.3889 -91.8583 79° East 437 503 27,000  Level Kansas City Center
Thu 11:34:54 AM 40.4122 -91.7039 79° East 435 501 27,000  Level Kansas City Center
Thu 11:35:43 AM 40.4344 -91.5500 79° East 434 499 27,000  Level Chicago Center
Thu 11:36:45 AM 40.4569 -91.3961 79° East 433 498 27,000  Level Chicago Center
Thu 11:37:47 AM 40.4794 -91.2617 78° East 434 499 27,000  Level Chicago Center
Thu 11:38:49 AM 40.5217 -91.0792 73° East 434 499 27,000  Level Chicago Center
Thu 11:39:51 AM 40.5558 -90.9256 74° East 438 504 27,000  Level Chicago Center
Thu 11:40:53 AM 40.5883 -90.7725 74° East 436 502 27,000  Level Chicago Center
Thu 11:41:55 AM 40.6197 -90.6203 75° East 432 497 27,000  Level Chicago Center
Thu 11:42:57 AM 40.6511 -90.4692 75° East 429 494 27,000 -242 Level Chicago Center
Thu 11:43:59 AM 40.6833 -90.3175 74° East 430 495 26,500 -774 Descending Chicago Center
Thu 11:45:01 AM 40.7186 -90.1475 75° East 427 491 25,400 -968 Descending Chicago Center
Thu 11:46:03 AM 40.7503 -89.9956 75° East 432 497 24,500 -968 Descending Chicago Center
Thu 11:47:05 AM 40.7808 -89.8447 75° East 428 493 23,400 -1,355 Descending Chicago Center
Thu 11:48:07 AM 40.8328 -89.6914 66° East 387 445 21,700 -1,742 Descending Chicago Center
Thu 11:49:09 AM 40.8933 -89.5775 55° Northeast 382 440 19,800 -1,790 Descending Chicago Center
Thu 11:50:11 AM 40.9536 -89.4689 54° Northeast 379 436 18,000 -1,452 Descending Chicago Center
Thu 11:51:13 AM 41.0167 -89.3586 53° Northeast 377 434 16,800 -1,016 Descending Chicago Center
Thu 11:52:15 AM 41.0542 -89.2369 68° East 365 420 15,900 -968 Descending Chicago Center
Thu 11:53:17 AM 41.0806 -89.1211 73° East 335 386 14,800 -1,317 Descending Chicago Center
Thu 11:54:18 AM 41.1186 -88.9911 69° East 322 371 13,200 -1,366 Descending Chicago Center
Thu 11:55:20 AM 41.1397 -88.8844 75° East 309 356 12,000 -1,200 Descending Chicago Center
Thu 11:56:23 AM 41.1633 -88.7775 74° East 303 349 10,700 -1,065 Descending Chicago Center
Thu 11:57:24 AM 41.2086 -88.6900 55° Northeast 295 339 9,800 -1,073 Descending Chicago Center
Thu 11:58:26 AM 41.2742 -88.6206 39° Northeast 298 343 8,500 -1,306 Descending Chicago Center
Thu 11:59:28 AM 41.3369 -88.5500 40° Northeast 297 342 7,100 -1,210 Descending Chicago Center
Thu 12:00:30 PM 41.3878 -88.4478 56° Northeast 279 321 6,000 -532 Descending Chicago Center
Thu 12:01:32 PM 41.4192 -88.3550 66° East 276 318 6,000 -629 Level Chicago Center
Thu 12:02:34 PM 41.4503 -88.2614 66° East 276 318 4,700 -968 Descending Chicago Center
Thu 12:03:36 PM 41.4967 -88.1817 52° Northeast 271 312 4,000 -339 Descending Chicago Center
Thu 12:04:38 PM 41.5436 -88.1017 52° Northeast 271 312 4,000  Level Chicago Center
Thu 12:05:40 PM 41.5847 -88.0325 52° Northeast 251 289 4,000  Level Chicago Center
Thu 12:06:42 PM 41.6242 -87.9672 51° Northeast 235 270 4,000 -145 Level Chicago Center
Thu 12:07:44 PM 41.6703 -87.8947 50° Northeast 222 255 3,700 -794 Descending Chicago Center
Thu 12:08:58 PM 41.7167 -87.8333 45° Northeast 196 226 2,200 -1,030 Descending Chicago TRACON
Thu 12:09:58 PM 41.7500 -87.7833 48° Northeast 135 155 1,400 -800 Descending Chicago TRACON
Thu 12:12:00 PM 41.7833 -87.7500 North  Level FlightAware Approximate

Login

Don't have an account? Register now (free) for customized features, flight alerts, and more!